Time;durP1;ratioP1;P1;durP2;ratioP2;P2;SDS_P1;SDS_P2;PMS_P1;PMS_P2;Temp;Humidity;BMP_temperature;BMP_pressure;BME280_temperature;BME280_humidity;BME280_pressure;Samples;Min_cycle;Max_cycle;Signal;HPM_P1;HPM_P2
2024/02/10 00:01:45;;;;;;;6.07;5.55;;;;;;;;;;4922582;29;20032;-69
2024/02/10 00:04:13;;;;;;;4.80;4.40;;;;;;;;;;4926647;29;20055;-68
2024/02/10 00:06:45;;;;;;;7.18;3.78;;;;;;;;;;4924210;29;20027;-69
2024/02/10 00:09:13;;;;;;;3.25;3.05;;;;;;;;;;4922116;29;20040;-69
2024/02/10 00:11:39;;;;;;;7.25;5.10;;;;;;;;;;4923493;29;20117;-70
2024/02/10 00:14:05;;;;;;;12.73;8.13;;;;;;;;;;4923009;29;20044;-70
2024/02/10 00:16:33;;;;;;;13.57;7.18;;;;;;;;;;4927102;29;20059;-70
2024/02/10 00:19:09;;;;;;;9.00;6.80;;;;;;;;;;4927713;29;20067;-70
2024/02/10 00:21:36;;;;;;;12.40;8.13;;;;;;;;;;4923531;29;20044;-69
2024/02/10 00:24:02;;;;;;;4.63;4.32;;;;;;;;;;4921601;29;20087;-69
2024/02/10 00:26:28;;;;;;;11.10;7.25;;;;;;;;;;4926712;29;20130;-70
2024/02/10 00:28:55;;;;;;;17.90;10.45;;;;;;;;;;4925925;29;20499;-70
2024/02/10 00:31:23;;;;;;;4.78;4.43;;;;;;;;;;4926312;29;20064;-70
2024/02/10 00:33:50;;;;;;;5.13;4.38;;;;;;;;;;4926852;29;20048;-69
2024/02/10 00:36:16;;;;;;;4.97;4.72;;;;;;;;;;4936500;29;20035;-70
2024/02/10 00:38:42;;;;;;;5.75;5.18;;;;;;;;;;4926903;29;20534;-69
2024/02/10 00:41:09;;;;;;;5.65;4.85;;;;;;;;;;4923442;29;20159;-70
2024/02/10 00:43:42;;;;;;;2.13;2.03;;;;;;;;;;4906911;29;20135;-70
2024/02/10 00:46:13;;;;;;;1.88;1.88;;;;;;;;;;4915290;29;20031;-70
2024/02/10 00:48:39;;;;;;;4.38;1.80;;;;;;;;;;4926796;29;20047;-70
2024/02/10 00:51:05;;;;;;;4.93;4.60;;;;;;;;;;4921415;29;20032;-70
2024/02/10 00:53:39;;;;;;;2.13;2.13;;;;;;;;;;4923718;29;20097;-70
2024/02/10 00:56:09;;;;;;;3.90;3.65;;;;;;;;;;4923692;29;20028;-69
2024/02/10 00:58:35;;;;;;;9.40;5.88;;;;;;;;;;4923656;29;20118;-70
2024/02/10 01:01:01;;;;;;;12.32;6.90;;;;;;;;;;4925513;29;20039;-70
2024/02/10 01:03:26;;;;;;;18.85;11.20;;;;;;;;;;4920029;29;20519;-69
2024/02/10 01:05:52;;;;;;;9.15;7.85;;;;;;;;;;4924308;29;20056;-69
2024/02/10 01:08:18;;;;;;;5.03;4.78;;;;;;;;;;4932696;29;20050;-69
2024/02/10 01:10:44;;;;;;;5.53;4.65;;;;;;;;;;4942900;29;20406;-70
2024/02/10 01:13:10;;;;;;;8.05;7.13;;;;;;;;;;4926172;29;20055;-70
2024/02/10 01:15:36;;;;;;;9.57;7.00;;;;;;;;;;4925548;29;20050;-70
2024/02/10 01:18:02;;;;;;;5.50;5.03;;;;;;;;;;4927512;29;20452;-70
2024/02/10 01:20:28;;;;;;;14.20;6.45;;;;;;;;;;4938311;29;20040;-70
2024/02/10 01:22:59;;;;;;;5.82;4.35;;;;;;;;;;4923733;29;20089;-70
2024/02/10 01:25:25;;;;;;;8.80;7.07;;;;;;;;;;4920788;29;20035;-71
2024/02/10 01:27:51;;;;;;;4.57;4.18;;;;;;;;;;4921854;29;20075;-70
2024/02/10 01:30:20;;;;;;;8.15;6.22;;;;;;;;;;4925479;29;20039;-70
2024/02/10 01:32:46;;;;;;;6.85;6.20;;;;;;;;;;4923735;29;20058;-70
2024/02/10 01:35:12;;;;;;;6.20;5.60;;;;;;;;;;4920360;29;20043;-71
2024/02/10 01:37:41;;;;;;;5.78;5.32;;;;;;;;;;4922454;29;20051;-69
2024/02/10 01:40:11;;;;;;;8.07;6.50;;;;;;;;;;4923099;29;20040;-69
2024/02/10 01:42:40;;;;;;;15.03;6.63;;;;;;;;;;4922917;29;20044;-70
2024/02/10 01:45:11;;;;;;;5.65;5.25;;;;;;;;;;4924916;29;20039;-71
2024/02/10 01:47:37;;;;;;;3.17;3.05;;;;;;;;;;4922231;29;20074;-70
2024/02/10 01:50:06;;;;;;;5.80;5.38;;;;;;;;;;4920153;29;20036;-70
2024/02/10 01:52:36;;;;;;;4.88;4.47;;;;;;;;;;4922909;29;20052;-70
2024/02/10 01:55:03;;;;;;;6.32;5.53;;;;;;;;;;4923095;29;20091;-69
2024/02/10 01:57:29;;;;;;;7.25;4.85;;;;;;;;;;4924314;29;20031;-70
2024/02/10 01:59:59;;;;;;;11.27;6.45;;;;;;;;;;4926733;29;20044;-68
2024/02/10 02:02:25;;;;;;;7.38;6.43;;;;;;;;;;4920475;29;20027;-74
2024/02/10 02:04:51;;;;;;;6.80;6.05;;;;;;;;;;4935117;29;20063;-69
2024/02/10 02:07:17;;;;;;;10.00;7.25;;;;;;;;;;4922656;29;20145;-68
2024/02/10 02:09:44;;;;;;;7.60;6.88;;;;;;;;;;4921028;29;20051;-68
2024/02/10 02:12:10;;;;;;;6.63;5.80;;;;;;;;;;4924882;29;20098;-68
2024/02/10 02:14:36;;;;;;;9.75;5.15;;;;;;;;;;4921390;29;20467;-69
2024/02/10 02:17:04;;;;;;;2.03;1.98;;;;;;;;;;4918384;29;20063;-68
2024/02/10 02:19:32;;;;;;;2.95;2.80;;;;;;;;;;4920859;29;20067;-69
2024/02/10 02:22:01;;;;;;;6.65;6.20;;;;;;;;;;4920414;29;20055;-70
2024/02/10 02:24:30;;;;;;;4.65;4.28;;;;;;;;;;4923311;29;20032;-69
2024/02/10 02:26:56;;;;;;;7.47;5.55;;;;;;;;;;4923953;29;20035;-69
2024/02/10 02:29:22;;;;;;;4.95;4.55;;;;;;;;;;4919491;29;20028;-70
2024/02/10 02:31:48;;;;;;;4.80;4.45;;;;;;;;;;4919742;29;20058;-69
2024/02/10 02:34:14;;;;;;;7.75;5.25;;;;;;;;;;4923134;29;20122;-70
2024/02/10 02:36:41;;;;;;;5.07;4.68;;;;;;;;;;4921308;29;20590;-72
2024/02/10 02:39:08;;;;;;;8.30;5.30;;;;;;;;;;4922624;29;20059;-70
2024/02/10 02:41:34;;;;;;;6.65;6.15;;;;;;;;;;4920887;29;20078;-70
2024/02/10 02:43:59;;;;;;;5.72;4.07;;;;;;;;;;4918330;29;20456;-70
2024/02/10 02:46:25;;;;;;;13.35;8.13;;;;;;;;;;4922981;29;20044;-69
2024/02/10 02:48:53;;;;;;;6.90;6.28;;;;;;;;;;4920215;29;20133;-69
2024/02/10 02:51:21;;;;;;;12.82;9.40;;;;;;;;;;4908966;29;20036;-69
2024/02/10 02:53:48;;;;;;;11.05;5.20;;;;;;;;;;4924960;29;20130;-70
2024/02/10 02:56:15;;;;;;;12.60;5.47;;;;;;;;;;4919115;29;20094;-69
2024/02/10 02:58:40;;;;;;;5.90;5.40;;;;;;;;;;4919576;29;20038;-70
2024/02/10 03:01:07;;;;;;;10.30;9.05;;;;;;;;;;4920545;29;20075;-69
2024/02/10 03:03:33;;;;;;;8.75;5.20;;;;;;;;;;4920396;29;20069;-69
2024/02/10 03:05:59;;;;;;;5.38;4.88;;;;;;;;;;4919789;29;20561;-69
2024/02/10 03:08:27;;;;;;;8.35;6.40;;;;;;;;;;4925223;29;20036;-70
2024/02/10 03:10:53;;;;;;;18.60;11.48;;;;;;;;;;4904570;29;20063;-70
2024/02/10 03:13:19;;;;;;;7.47;6.40;;;;;;;;;;4922470;29;20043;-70
2024/02/10 03:15:47;;;;;;;17.25;11.70;;;;;;;;;;4920753;29;20040;-70
2024/02/10 03:18:13;;;;;;;13.55;9.05;;;;;;;;;;4922449;29;20206;-69
2024/02/10 03:20:39;;;;;;;7.63;5.07;;;;;;;;;;4919347;29;20058;-70
2024/02/10 03:23:07;;;;;;;7.80;7.15;;;;;;;;;;4918784;29;20590;-69
2024/02/10 03:25:33;;;;;;;6.97;6.35;;;;;;;;;;4922452;29;20039;-70
2024/02/10 03:28:03;;;;;;;1.70;1.70;;;;;;;;;;4920053;29;20046;-69
2024/02/10 03:30:29;;;;;;;8.95;7.97;;;;;;;;;;4922105;29;20042;-70
2024/02/10 03:32:55;;;;;;;7.05;6.38;;;;;;;;;;4922519;29;20502;-71
2024/02/10 03:35:21;;;;;;;7.53;6.57;;;;;;;;;;4918834;29;20039;-71
2024/02/10 03:37:47;;;;;;;9.18;8.20;;;;;;;;;;4917806;29;20028;-70
2024/02/10 03:40:19;;;;;;;6.15;5.70;;;;;;;;;;4922232;29;20040;-71
2024/02/10 03:42:46;;;;;;;7.68;7.13;;;;;;;;;;4937706;29;20039;-71
2024/02/10 03:45:14;;;;;;;10.32;9.18;;;;;;;;;;4922676;29;20040;-71
2024/02/10 03:47:42;;;;;;;15.10;8.52;;;;;;;;;;4920627;29;20126;-71
2024/02/10 03:50:09;;;;;;;6.50;6.00;;;;;;;;;;4919021;29;20024;-71
2024/02/10 03:52:35;;;;;;;14.55;8.48;;;;;;;;;;4920956;29;20489;-70
2024/02/10 03:55:01;;;;;;;9.70;8.10;;;;;;;;;;4919182;29;20047;-70
2024/02/10 03:57:30;;;;;;;11.45;8.10;;;;;;;;;;4922593;29;20087;-71
2024/02/10 03:59:56;;;;;;;7.45;6.85;;;;;;;;;;4922818;29;20044;-70
2024/02/10 04:02:22;;;;;;;7.80;7.32;;;;;;;;;;4919705;29;20036;-71
2024/02/10 04:04:50;;;;;;;5.78;5.20;;;;;;;;;;4922072;29;20507;-71
2024/02/10 04:07:16;;;;;;;16.20;8.02;;;;;;;;;;4923841;29;20039;-70
2024/02/10 04:09:42;;;;;;;9.77;8.98;;;;;;;;;;4923574;29;20031;-71
2024/02/10 04:12:07;;;;;;;4.43;4.30;;;;;;;;;;4925827;29;20044;-71
2024/02/10 04:14:33;;;;;;;9.50;7.53;;;;;;;;;;4921293;29;20071;-71
2024/02/10 04:17:00;;;;;;;15.07;9.73;;;;;;;;;;4919150;29;20036;-70
2024/02/10 04:19:26;;;;;;;3.92;2.65;;;;;;;;;;4922482;29;20126;-70
2024/02/10 04:21:58;;;;;;;25.70;11.70;;;;;;;;;;4904503;29;20047;-69
2024/02/10 04:24:25;;;;;;;6.13;5.55;;;;;;;;;;4923872;29;20118;-71
2024/02/10 04:26:51;;;;;;;9.88;7.63;;;;;;;;;;4929226;29;20039;-71
2024/02/10 04:29:17;;;;;;;8.48;7.70;;;;;;;;;;4920561;29;20038;-70
2024/02/10 04:31:44;;;;;;;7.38;6.10;;;;;;;;;;4927687;29;20411;-70
2024/02/10 04:34:10;;;;;;;10.60;9.60;;;;;;;;;;4923229;29;20044;-69
2024/02/10 04:36:36;;;;;;;15.57;10.90;;;;;;;;;;4924063;29;20046;-71
2024/02/10 04:39:05;;;;;;;10.23;7.72;;;;;;;;;;4922760;29;20396;-69
2024/02/10 04:41:31;;;;;;;6.90;6.25;;;;;;;;;;4922458;29;20042;-71
2024/02/10 04:43:57;;;;;;;7.63;5.03;;;;;;;;;;4928795;29;20032;-70
2024/02/10 04:46:23;;;;;;;8.23;6.13;;;;;;;;;;4921609;29;20036;-70
2024/02/10 04:48:52;;;;;;;6.57;5.25;;;;;;;;;;4921781;29;20043;-70
2024/02/10 04:51:18;;;;;;;5.03;4.70;;;;;;;;;;4925937;29;20550;-70
2024/02/10 04:53:44;;;;;;;9.65;6.10;;;;;;;;;;4906815;29;20048;-69
2024/02/10 04:56:19;;;;;;;5.32;4.90;;;;;;;;;;4926445;29;20168;-69
2024/02/10 04:58:46;;;;;;;8.68;7.43;;;;;;;;;;4922374;29;20044;-71
2024/02/10 05:01:15;;;;;;;11.38;6.85;;;;;;;;;;4927922;29;20725;-72
2024/02/10 05:03:41;;;;;;;4.90;4.50;;;;;;;;;;4915974;29;20051;-71
2024/02/10 05:06:09;;;;;;;7.38;6.68;;;;;;;;;;4924442;29;20233;-71
2024/02/10 05:08:37;;;;;;;3.70;3.40;;;;;;;;;;4944933;28;20046;-73
2024/02/10 05:11:03;;;;;;;3.13;2.85;;;;;;;;;;4928238;29;20139;-72
2024/02/10 05:13:30;;;;;;;6.82;5.90;;;;;;;;;;4929054;29;20130;-73
2024/02/10 05:15:56;;;;;;;6.28;5.70;;;;;;;;;;4928839;29;20036;-73
2024/02/10 05:18:22;;;;;;;8.30;7.57;;;;;;;;;;4922324;29;20503;-73
2024/02/10 05:20:48;;;;;;;13.48;9.02;;;;;;;;;;4911714;29;20024;-72
2024/02/10 05:23:16;;;;;;;8.13;7.45;;;;;;;;;;4907447;29;20039;-74
2024/02/10 05:25:43;;;;;;;9.15;7.57;;;;;;;;;;4923293;29;20118;-73
2024/02/10 05:28:09;;;;;;;8.30;7.53;;;;;;;;;;4928499;29;20146;-72
2024/02/10 05:30:34;;;;;;;5.40;5.00;;;;;;;;;;4921828;29;20043;-73
2024/02/10 05:33:01;;;;;;;7.53;6.82;;;;;;;;;;4920907;29;20122;-71
2024/02/10 05:35:29;;;;;;;8.57;7.60;;;;;;;;;;4922155;29;20032;-72
2024/02/10 05:37:56;;;;;;;7.88;7.22;;;;;;;;;;4923347;29;20032;-72
2024/02/10 05:40:23;;;;;;;7.18;6.50;;;;;;;;;;4923228;29;20039;-72
2024/02/10 05:42:52;;;;;;;8.43;6.03;;;;;;;;;;4920244;29;20122;-71
2024/02/10 05:45:19;;;;;;;12.38;11.00;;;;;;;;;;4921590;29;20114;-72
2024/02/10 05:47:45;;;;;;;11.93;9.20;;;;;;;;;;4925190;29;20670;-72
2024/02/10 05:50:18;;;;;;;8.48;7.82;;;;;;;;;;4921236;29;20037;-72
2024/02/10 05:52:49;;;;;;;8.38;7.03;;;;;;;;;;4906888;29;20048;-72
2024/02/10 05:55:25;;;;;;;5.65;5.28;;;;;;;;;;4922068;29;20158;-72
2024/02/10 05:58:06;;;;;;;6.70;5.97;;;;;;;;;;4919298;29;20055;-72
2024/02/10 06:00:32;;;;;;;18.98;12.52;;;;;;;;;;4921015;29;20039;-72
2024/02/10 06:03:00;;;;;;;21.85;14.20;;;;;;;;;;4923513;29;20035;-73
2024/02/10 06:05:26;;;;;;;8.85;7.88;;;;;;;;;;4926283;29;20072;-73
2024/02/10 06:07:54;;;;;;;11.45;6.53;;;;;;;;;;4936955;29;20043;-71
2024/02/10 06:10:20;;;;;;;7.93;6.90;;;;;;;;;;4924247;29;20036;-72
2024/02/10 06:12:46;;;;;;;12.13;7.88;;;;;;;;;;4930367;29;20047;-73
2024/02/10 06:15:12;;;;;;;7.85;6.47;;;;;;;;;;4923443;29;20058;-70
2024/02/10 06:17:43;;;;;;;7.65;6.93;;;;;;;;;;4928735;29;20099;-72
2024/02/10 06:20:14;;;;;;;6.43;5.80;;;;;;;;;;4925134;29;20032;-73
2024/02/10 06:22:41;;;;;;;12.48;5.75;;;;;;;;;;4909380;29;20523;-72
2024/02/10 06:25:11;;;;;;;8.57;7.68;;;;;;;;;;4911472;29;20028;-72
2024/02/10 06:27:40;;;;;;;16.23;8.17;;;;;;;;;;4928262;29;20036;-72
2024/02/10 06:30:14;;;;;;;21.05;11.15;;;;;;;;;;4922474;29;20307;-73
2024/02/10 06:32:40;;;;;;;15.07;11.10;;;;;;;;;;4921440;29;20051;-72
2024/02/10 06:35:08;;;;;;;27.48;16.00;;;;;;;;;;4925475;29;20036;-71
2024/02/10 06:37:35;;;;;;;11.13;9.18;;;;;;;;;;4929420;23;20540;-77
2024/02/10 06:40:04;;;;;;;11.70;7.43;;;;;;;;;;4971891;23;20049;-75
2024/02/10 06:42:37;;;;;;;22.88;13.25;;;;;;;;;;4957395;28;20497;-76
2024/02/10 06:45:08;;;;;;;19.13;14.05;;;;;;;;;;4970755;28;20055;-77
2024/02/10 06:47:35;;;;;;;5.50;5.07;;;;;;;;;;4971399;28;20050;-75
2024/02/10 06:50:04;;;;;;;13.52;10.60;;;;;;;;;;4956379;28;20132;-75
2024/02/10 06:52:37;;;;;;;40.22;17.60;;;;;;;;;;4958579;28;20509;-75
2024/02/10 06:55:03;;;;;;;36.70;16.65;;;;;;;;;;4971929;28;20041;-75
2024/02/10 06:57:31;;;;;;;21.00;14.27;;;;;;;;;;4964452;28;20116;-76
2024/02/10 06:59:58;;;;;;;28.60;17.17;;;;;;;;;;4973166;28;20058;-78
2024/02/10 07:02:25;;;;;;;40.95;21.15;;;;;;;;;;4969970;28;20382;-78
2024/02/10 07:04:55;;;;;;;33.95;17.73;;;;;;;;;;4975734;28;20042;-78
2024/02/10 07:07:24;;;;;;;21.80;13.80;;;;;;;;;;4966952;28;20527;-75
2024/02/10 07:09:51;;;;;;;19.80;10.35;;;;;;;;;;4967351;28;20058;-76
2024/02/10 07:12:16;;;;;;;35.70;15.85;;;;;;;;;;4949888;28;20049;-75
2024/02/10 07:14:45;;;;;;;34.35;17.75;;;;;;;;;;4961930;28;20682;-76
2024/02/10 07:17:12;;;;;;;12.02;7.30;;;;;;;;;;4966444;28;20039;-76
2024/02/10 07:19:40;;;;;;;27.17;16.83;;;;;;;;;;4990460;28;20033;-76
2024/02/10 07:22:06;;;;;;;5.88;5.47;;;;;;;;;;5016641;28;20042;-75
2024/02/10 07:24:33;;;;;;;30.10;15.25;;;;;;;;;;5018616;28;20053;-76
2024/02/10 07:27:00;;;;;;;15.73;10.30;;;;;;;;;;4990289;28;20034;-75
2024/02/10 07:29:26;;;;;;;14.98;6.97;;;;;;;;;;4995935;28;20025;-75
2024/02/10 07:31:54;;;;;;;18.20;11.05;;;;;;;;;;5005937;28;20677;-74
2024/02/10 07:34:19;;;;;;;15.60;10.35;;;;;;;;;;4969146;28;20040;-74
2024/02/10 07:36:48;;;;;;;18.60;12.13;;;;;;;;;;4986060;28;20046;-77
2024/02/10 07:39:16;;;;;;;16.48;11.82;;;;;;;;;;4974916;28;20536;-76
2024/02/10 07:41:42;;;;;;;13.45;9.23;;;;;;;;;;4964870;28;20047;-78
2024/02/10 07:44:12;;;;;;;10.07;8.52;;;;;;;;;;4965101;28;20081;-75
2024/02/10 07:46:38;;;;;;;15.43;7.97;;;;;;;;;;4952150;28;20105;-75
2024/02/10 07:49:07;;;;;;;12.80;9.10;;;;;;;;;;4956579;28;20450;-75
2024/02/10 07:51:33;;;;;;;8.82;6.55;;;;;;;;;;4964628;28;20038;-76
2024/02/10 07:53:59;;;;;;;15.38;8.15;;;;;;;;;;4932366;28;20051;-76
2024/02/10 07:56:28;;;;;;;13.00;8.43;;;;;;;;;;4964955;28;20073;-75
2024/02/10 07:58:59;;;;;;;23.33;13.55;;;;;;;;;;4962377;28;20065;-75
2024/02/10 08:01:31;;;;;;;15.83;10.77;;;;;;;;;;4964677;28;20118;-74
2024/02/10 08:03:57;;;;;;;10.00;7.90;;;;;;;;;;4963589;28;20030;-75
2024/02/10 08:06:26;;;;;;;26.60;14.45;;;;;;;;;;4958308;28;20041;-75
2024/02/10 08:08:57;;;;;;;8.13;7.30;;;;;;;;;;4950126;28;20031;-74
2024/02/10 08:11:24;;;;;;;20.60;12.80;;;;;;;;;;4970602;28;20042;-73
2024/02/10 08:13:51;;;;;;;14.40;11.63;;;;;;;;;;4952575;28;20073;-74
2024/02/10 08:16:18;;;;;;;13.13;8.73;;;;;;;;;;4969481;28;20043;-75
2024/02/10 08:18:44;;;;;;;12.93;10.65;;;;;;;;;;4967794;28;20535;-74
2024/02/10 08:21:10;;;;;;;18.73;10.68;;;;;;;;;;4968145;28;20275;-76
2024/02/10 08:23:38;;;;;;;22.55;11.35;;;;;;;;;;4960847;28;20050;-76
2024/02/10 08:26:06;;;;;;;13.70;11.02;;;;;;;;;;4964478;28;20035;-76
2024/02/10 08:28:32;;;;;;;12.15;8.80;;;;;;;;;;4936670;28;20086;-77
2024/02/10 08:30:59;;;;;;;21.65;10.38;;;;;;;;;;4969440;28;20039;-75
2024/02/10 08:33:30;;;;;;;22.92;12.90;;;;;;;;;;4951515;28;20077;-76
2024/02/10 08:35:57;;;;;;;;;;;;;;;;;;4953625;28;20034;-76
2024/02/10 08:38:23;;;;;;;23.52;12.20;;;;;;;;;;4967831;28;19945;-75
2024/02/10 08:40:48;;;;;;;26.33;14.85;;;;;;;;;;4951456;28;20035;-76
2024/02/10 08:43:14;;;;;;;19.27;13.38;;;;;;;;;;4968871;28;20326;-74
2024/02/10 08:45:40;;;;;;;19.70;12.07;;;;;;;;;;4969430;28;20057;-74
2024/02/10 08:48:08;;;;;;;23.10;15.95;;;;;;;;;;4951914;28;20508;-74
2024/02/10 08:50:34;;;;;;;14.65;11.35;;;;;;;;;;4969411;28;20509;-75
2024/02/10 08:53:00;;;;;;;17.55;14.05;;;;;;;;;;4935701;28;20228;-75
2024/02/10 08:55:26;;;;;;;17.90;11.23;;;;;;;;;;4969213;28;20509;-74
2024/02/10 08:57:55;;;;;;;16.40;11.75;;;;;;;;;;4968997;28;20135;-74
2024/02/10 09:00:21;;;;;;;15.88;10.75;;;;;;;;;;4968778;28;20035;-74
2024/02/10 09:02:50;;;;;;;23.83;13.98;;;;;;;;;;4948785;28;20027;-76
2024/02/10 09:05:16;;;;;;;28.17;15.35;;;;;;;;;;4967758;28;20034;-77
2024/02/10 09:07:42;;;;;;;17.00;13.88;;;;;;;;;;4969051;28;20030;-75
2024/02/10 09:10:08;;;;;;;17.85;12.82;;;;;;;;;;4933639;28;20556;-75
2024/02/10 09:12:34;;;;;;;15.55;12.77;;;;;;;;;;4967966;28;20524;-75
2024/02/10 09:15:00;;;;;;;14.40;12.63;;;;;;;;;;4968681;28;20049;-75
2024/02/10 09:17:26;;;;;;;14.95;11.60;;;;;;;;;;4968980;28;20030;-76
2024/02/10 09:19:52;;;;;;;15.30;10.75;;;;;;;;;;4951365;28;20034;-77
2024/02/10 09:22:18;;;;;;;11.55;8.57;;;;;;;;;;4952644;28;20091;-74
2024/02/10 09:24:44;;;;;;;23.85;18.00;;;;;;;;;;4968100;28;20045;-75
2024/02/10 09:27:09;;;;;;;17.33;11.63;;;;;;;;;;4952004;28;20133;-75
2024/02/10 09:29:35;;;;;;;11.43;10.32;;;;;;;;;;4967982;28;20065;-75
2024/02/10 09:32:01;;;;;;;9.32;8.38;;;;;;;;;;4968347;28;20480;-77
2024/02/10 09:34:27;;;;;;;14.80;9.02;;;;;;;;;;4968755;28;20160;-75
2024/02/10 09:36:54;;;;;;;9.88;8.50;;;;;;;;;;4967157;28;20081;-74
2024/02/10 09:39:20;;;;;;;9.18;7.95;;;;;;;;;;4967251;28;20169;-75
2024/02/10 09:41:46;;;;;;;13.95;10.80;;;;;;;;;;4968850;28;20031;-74
2024/02/10 09:44:15;;;;;;;16.83;11.07;;;;;;;;;;4965498;28;20031;-75
2024/02/10 09:46:42;;;;;;;14.35;10.00;;;;;;;;;;4962312;28;20078;-74
2024/02/10 09:49:09;;;;;;;15.68;9.57;;;;;;;;;;4951521;28;20035;-74
2024/02/10 09:51:42;;;;;;;20.17;12.15;;;;;;;;;;4968752;28;20043;-75
2024/02/10 09:54:08;;;;;;;11.18;8.40;;;;;;;;;;4968134;28;20485;-74
2024/02/10 09:56:35;;;;;;;11.27;9.05;;;;;;;;;;4968896;28;20062;-74
2024/02/10 09:59:01;;;;;;;14.70;9.60;;;;;;;;;;4934899;28;20027;-75
2024/02/10 10:01:31;;;;;;;12.23;9.23;;;;;;;;;;4968602;28;20146;-74
2024/02/10 10:03:57;;;;;;;4.25;3.92;;;;;;;;;;4967590;28;20126;-74
2024/02/10 10:06:23;;;;;;;9.90;7.93;;;;;;;;;;4968172;28;20129;-74
2024/02/10 10:08:49;;;;;;;14.35;8.77;;;;;;;;;;4966914;28;20031;-75
2024/02/10 10:11:15;;;;;;;5.70;5.22;;;;;;;;;;4967552;28;20042;-74
2024/02/10 10:13:41;;;;;;;7.95;7.15;;;;;;;;;;4968942;28;20047;-74
2024/02/10 10:16:10;;;;;;;10.23;8.43;;;;;;;;;;4966514;28;20385;-75
2024/02/10 10:18:36;;;;;;;11.25;9.05;;;;;;;;;;4972324;28;20034;-75
2024/02/10 10:21:05;;;;;;;11.35;6.10;;;;;;;;;;4969831;28;20026;-75
2024/02/10 10:23:32;;;;;;;11.52;7.88;;;;;;;;;;4957292;28;20030;-74
2024/02/10 10:25:58;;;;;;;13.07;8.00;;;;;;;;;;4963069;28;20066;-74
2024/02/10 10:28:24;;;;;;;7.15;6.40;;;;;;;;;;4951413;28;20046;-75
2024/02/10 10:30:50;;;;;;;7.80;6.97;;;;;;;;;;4966131;28;20086;-75
2024/02/10 10:33:20;;;;;;;8.10;7.35;;;;;;;;;;4968159;28;20560;-74
2024/02/10 10:35:47;;;;;;;13.68;6.97;;;;;;;;;;4951801;28;20026;-74
2024/02/10 10:38:13;;;;;;;4.13;3.85;;;;;;;;;;4968271;28;20125;-74
2024/02/10 10:40:39;;;;;;;13.68;8.48;;;;;;;;;;4967043;28;20054;-74
2024/02/10 10:43:05;;;;;;;9.02;7.97;;;;;;;;;;4943308;28;20429;-74
2024/02/10 10:45:32;;;;;;;7.82;7.03;;;;;;;;;;4966489;28;20037;-75
2024/02/10 10:47:59;;;;;;;10.38;7.35;;;;;;;;;;4965932;28;20086;-74
2024/02/10 10:50:25;;;;;;;6.50;5.57;;;;;;;;;;4965444;28;20023;-74
2024/02/10 10:52:51;;;;;;;8.45;6.28;;;;;;;;;;4950398;28;20053;-74
2024/02/10 10:55:17;;;;;;;8.25;6.97;;;;;;;;;;4949615;28;20038;-74
2024/02/10 10:57:44;;;;;;;6.82;6.20;;;;;;;;;;4950240;28;20342;-74
2024/02/10 11:00:28;;;;;;;6.97;6.28;;;;;;;;;;4967157;28;20033;-75
2024/02/10 11:02:55;;;;;;;15.38;10.50;;;;;;;;;;4933541;28;20034;-74
2024/02/10 11:05:23;;;;;;;11.38;7.78;;;;;;;;;;4933821;28;20122;-74
2024/02/10 11:07:59;;;;;;;5.00;4.50;;;;;;;;;;4950030;28;20092;-74
2024/02/10 11:10:38;;;;;;;14.05;10.00;;;;;;;;;;4949853;28;20571;-74
2024/02/10 11:13:05;;;;;;;9.57;8.07;;;;;;;;;;4962309;28;20043;-75
2024/02/10 11:15:31;;;;;;;10.68;8.43;;;;;;;;;;4941827;28;20037;-74
2024/02/10 11:17:57;;;;;;;6.60;6.00;;;;;;;;;;4958298;28;20078;-77
2024/02/10 11:20:27;;;;;;;8.90;7.82;;;;;;;;;;4952311;28;20042;-77
2024/02/10 11:22:57;;;;;;;9.60;5.72;;;;;;;;;;4968021;28;20049;-78
2024/02/10 11:25:25;;;;;;;11.60;8.20;;;;;;;;;;4966098;28;20023;-76
2024/02/10 11:27:52;;;;;;;6.40;5.80;;;;;;;;;;4966741;28;20034;-76
2024/02/10 11:30:20;;;;;;;7.28;6.00;;;;;;;;;;4948921;28;20026;-75
2024/02/10 11:32:47;;;;;;;8.40;6.82;;;;;;;;;;4933865;28;20109;-78
2024/02/10 11:35:14;;;;;;;8.10;5.63;;;;;;;;;;4949668;28;20556;-77
2024/02/10 11:37:39;;;;;;;9.80;6.25;;;;;;;;;;4967126;28;20145;-77
2024/02/10 11:40:05;;;;;;;6.78;5.05;;;;;;;;;;4966057;28;20109;-76
2024/02/10 11:42:31;;;;;;;7.82;6.45;;;;;;;;;;4966106;28;20151;-77
2024/02/10 11:45:00;;;;;;;7.15;5.13;;;;;;;;;;4969609;28;20201;-77
2024/02/10 11:47:27;;;;;;;6.20;3.83;;;;;;;;;;4928316;28;20144;-77
2024/02/10 11:49:55;;;;;;;7.30;5.70;;;;;;;;;;4962279;28;20047;-77
2024/02/10 11:52:22;;;;;;;6.80;5.50;;;;;;;;;;4964959;28;20501;-76
2024/02/10 11:54:48;;;;;;;11.00;7.53;;;;;;;;;;4966890;28;20042;-77
2024/02/10 11:57:14;;;;;;;12.13;9.43;;;;;;;;;;4951551;28;20584;-76
2024/02/10 11:59:40;;;;;;;8.43;7.53;;;;;;;;;;4953811;28;20504;-74
2024/02/10 12:02:06;;;;;;;2.92;2.72;;;;;;;;;;4971705;28;20034;-74
2024/02/10 12:04:35;;;;;;;7.53;5.60;;;;;;;;;;4968842;28;20082;-75
2024/02/10 12:07:01;;;;;;;5.72;5.22;;;;;;;;;;4972663;28;20096;-74
2024/02/10 12:09:27;;;;;;;6.85;6.13;;;;;;;;;;4976838;28;20034;-74
2024/02/10 12:11:57;;;;;;;5.95;5.38;;;;;;;;;;4977336;28;20043;-74
2024/02/10 12:14:24;;;;;;;7.33;6.67;;;;;;;;;;4979727;28;20050;-74
2024/02/10 12:16:52;;;;;;;4.35;4.05;;;;;;;;;;4964802;28;20277;-74
2024/02/10 12:19:20;;;;;;;6.03;5.28;;;;;;;;;;4965546;28;20042;-74
2024/02/10 12:21:49;;;;;;;4.60;4.20;;;;;;;;;;4983536;28;20035;-75
2024/02/10 12:24:21;;;;;;;14.15;7.38;;;;;;;;;;4964137;28;20230;-75
2024/02/10 12:26:48;;;;;;;10.70;7.55;;;;;;;;;;4973328;28;20042;-74
2024/02/10 12:29:14;;;;;;;2.40;2.25;;;;;;;;;;4971194;28;20149;-75
2024/02/10 12:31:40;;;;;;;9.13;6.97;;;;;;;;;;4971810;28;20594;-74
2024/02/10 12:34:08;;;;;;;6.32;4.75;;;;;;;;;;4971192;28;20077;-74
2024/02/10 12:36:35;;;;;;;9.40;5.25;;;;;;;;;;4969616;28;20231;-74
2024/02/10 12:39:00;;;;;;;5.32;4.85;;;;;;;;;;4969913;28;20050;-74
2024/02/10 12:41:26;;;;;;;7.57;6.85;;;;;;;;;;4971572;28;20027;-74
2024/02/10 12:43:53;;;;;;;11.18;7.07;;;;;;;;;;4968810;28;20030;-74
2024/02/10 12:46:19;;;;;;;9.65;7.15;;;;;;;;;;4936906;28;20047;-74
2024/02/10 12:48:45;;;;;;;4.85;4.50;;;;;;;;;;4950414;28;20031;-76
2024/02/10 12:51:11;;;;;;;9.57;7.57;;;;;;;;;;4952759;28;20062;-75
2024/02/10 12:53:36;;;;;;;6.97;5.65;;;;;;;;;;4969269;28;20047;-75
2024/02/10 12:56:03;;;;;;;6.30;4.85;;;;;;;;;;4967782;28;20035;-75
2024/02/10 12:58:29;;;;;;;6.15;4.03;;;;;;;;;;4970293;28;20053;-75
2024/02/10 13:00:56;;;;;;;7.88;7.07;;;;;;;;;;4967334;28;20039;-75
2024/02/10 13:03:22;;;;;;;8.95;7.95;;;;;;;;;;4968212;28;20034;-72
2024/02/10 13:05:49;;;;;;;14.48;6.72;;;;;;;;;;4968199;28;20031;-72
2024/02/10 13:08:17;;;;;;;8.75;6.97;;;;;;;;;;4970787;28;20388;-72
2024/02/10 13:10:46;;;;;;;20.08;11.98;;;;;;;;;;4970912;28;20031;-73
2024/02/10 13:13:12;;;;;;;24.00;11.60;;;;;;;;;;4980906;28;20034;-72
2024/02/10 13:15:42;;;;;;;12.02;7.97;;;;;;;;;;4976461;28;20046;-72
2024/02/10 13:18:10;;;;;;;9.68;7.10;;;;;;;;;;4970019;28;20041;-73
2024/02/10 13:20:35;;;;;;;8.55;7.50;;;;;;;;;;4969950;28;20035;-71
2024/02/10 13:23:01;;;;;;;11.00;7.95;;;;;;;;;;4967496;28;20683;-73
2024/02/10 13:25:27;;;;;;;11.57;7.95;;;;;;;;;;4969361;28;20031;-70
2024/02/10 13:27:53;;;;;;;8.90;7.72;;;;;;;;;;4969719;28;20575;-70
2024/02/10 13:30:19;;;;;;;15.18;9.25;;;;;;;;;;4962689;28;20791;-72
2024/02/10 13:32:45;;;;;;;7.70;6.82;;;;;;;;;;4969003;28;20039;-71
2024/02/10 13:35:15;;;;;;;7.65;5.65;;;;;;;;;;4969774;28;20035;-71
2024/02/10 14:05:12;;;;;;;12.75;8.80;;;;;;;;;;4969587;28;20049;-72
2024/02/10 14:12:35;;;;;;;21.75;13.15;;;;;;;;;;4968212;28;20038;-71
2024/02/10 14:15:16;;;;;;;15.88;9.82;;;;;;;;;;4964355;28;20054;-71
2024/02/10 14:17:52;;;;;;;11.90;8.63;;;;;;;;;;4968477;28;20035;-72
2024/02/10 14:20:25;;;;;;;11.32;8.38;;;;;;;;;;4956902;28;20041;-73
2024/02/10 14:22:53;;;;;;;10.13;9.13;;;;;;;;;;4962861;28;20178;-71
2024/02/10 14:25:26;;;;;;;8.27;6.97;;;;;;;;;;4957685;28;20049;-71
2024/02/10 14:28:23;;;;;;;14.63;9.60;;;;;;;;;;4964071;28;20706;-71
2024/02/10 14:30:47;;;;;;;6.28;4.70;;;;;;;;;;4965088;28;20050;-72
2024/02/10 14:33:15;;;;;;;16.48;9.60;;;;;;;;;;4963860;28;20038;-72
2024/02/10 14:38:58;;;;;;;13.45;7.35;;;;;;;;;;4965556;28;20559;-72
2024/02/10 14:41:28;;;;;;;4.85;4.53;;;;;;;;;;4965293;28;20062;-73
2024/02/10 14:43:55;;;;;;;8.35;7.65;;;;;;;;;;4964618;28;20050;-73
2024/02/10 14:46:20;;;;;;;12.65;9.93;;;;;;;;;;4965065;28;20436;-72
2024/02/10 14:48:46;;;;;;;10.57;6.72;;;;;;;;;;4962853;28;20437;-73
2024/02/10 14:51:13;;;;;;;7.85;6.18;;;;;;;;;;4960281;28;20047;-72
2024/02/10 14:53:39;;;;;;;7.85;6.50;;;;;;;;;;4955356;28;20046;-72
2024/02/10 14:56:10;;;;;;;29.45;7.63;;;;;;;;;;4960969;28;20121;-71
2024/02/10 14:58:36;;;;;;;8.93;7.63;;;;;;;;;;4963928;28;20228;-73
2024/02/10 15:01:04;;;;;;;4.90;4.55;;;;;;;;;;4960541;28;20114;-73
2024/02/10 15:03:32;;;;;;;9.50;7.25;;;;;;;;;;4962214;28;20054;-71
2024/02/10 15:05:58;;;;;;;12.95;9.30;;;;;;;;;;4944106;28;20589;-72
2024/02/10 15:08:24;;;;;;;8.35;7.60;;;;;;;;;;4961909;28;20062;-73
2024/02/10 15:10:51;;;;;;;10.95;8.45;;;;;;;;;;4963100;28;20070;-72
2024/02/10 15:13:18;;;;;;;15.40;8.98;;;;;;;;;;4961844;28;20485;-74